Time;durP1;ratioP1;P1;durP2;ratioP2;P2;SDS_P1;SDS_P2;PMS_P1;PMS_P2;Temp;Humidity;BMP_temperature;BMP_pressure;BME280_temperature;BME280_humidity;BME280_pressure;Samples;Min_cycle;Max_cycle;Signal;HPM_P1;HPM_P2
2022/06/09 00:00:30;;;;;;;1.63;0.77;;;15.40;99.90;;;;;;5073504;28;20533;-46
2022/06/09 00:03:01;;;;;;;1.93;0.90;;;15.50;99.90;;;;;;5073353;28;20486;-48
2022/06/09 00:05:29;;;;;;;1.70;0.83;;;15.50;99.90;;;;;;5073590;28;20496;-45
2022/06/09 00:07:57;;;;;;;1.57;1.00;;;15.40;99.90;;;;;;5073701;28;20464;-45
2022/06/09 00:10:28;;;;;;;2.67;1.20;;;15.50;99.90;;;;;;5073287;28;20932;-45
2022/06/09 00:12:57;;;;;;;1.83;1.00;;;15.40;99.90;;;;;;5073478;28;20498;-49
2022/06/09 00:15:25;;;;;;;2.27;1.20;;;15.40;99.90;;;;;;5072925;28;20505;-45
2022/06/09 00:17:52;;;;;;;2.13;1.10;;;15.40;99.90;;;;;;5073377;28;20527;-46
2022/06/09 00:20:19;;;;;;;2.67;1.47;;;15.40;99.90;;;;;;5072965;28;20533;-45
2022/06/09 00:22:46;;;;;;;1.57;0.77;;;15.50;99.90;;;;;;5073295;28;20484;-46
2022/06/09 00:25:14;;;;;;;1.53;0.90;;;15.50;99.90;;;;;;5073291;28;20468;-45
2022/06/09 00:27:41;;;;;;;1.83;1.13;;;15.40;99.90;;;;;;5073237;28;20498;-45
2022/06/09 00:30:12;;;;;;;1.87;0.83;;;15.40;99.90;;;;;;5072536;28;20944;-47
2022/06/09 00:32:39;;;;;;;3.47;0.77;;;15.40;99.90;;;;;;5073089;28;20447;-46
2022/06/09 00:35:07;;;;;;;1.10;0.80;;;15.40;99.90;;;;;;5072796;28;20880;-46
2022/06/09 00:37:34;;;;;;;1.20;0.90;;;15.40;99.90;;;;;;5072886;28;20818;-47
2022/06/09 00:40:01;;;;;;;1.20;0.73;;;15.30;99.90;;;;;;5072697;28;20513;-46
2022/06/09 00:42:28;;;;;;;1.10;0.80;;;15.30;99.90;;;;;;5072441;28;20464;-45
2022/06/09 00:44:55;;;;;;;1.03;0.50;;;15.20;99.90;;;;;;5073171;28;20522;-49
2022/06/09 00:47:27;;;;;;;2.47;0.77;;;15.20;99.90;;;;;;5071662;28;20982;-47
2022/06/09 00:50:00;;;;;;;1.10;0.60;;;15.10;99.90;;;;;;5072358;28;20477;-46
2022/06/09 00:52:30;;;;;;;1.10;0.50;;;15.10;99.90;;;;;;5073271;28;20529;-45
2022/06/09 00:55:00;;;;;;;1.30;0.63;;;15.10;99.90;;;;;;5072483;28;20503;-45
2022/06/09 00:57:33;;;;;;;1.30;0.80;;;15.10;99.90;;;;;;5072290;28;20504;-45
2022/06/09 01:00:07;;;;;;;1.30;0.63;;;15.10;99.90;;;;;;5072223;28;20443;-47
2022/06/09 01:02:36;;;;;;;1.47;0.70;;;15.10;99.90;;;;;;5072210;28;20472;-49
2022/06/09 01:05:05;;;;;;;1.30;0.60;;;15.00;99.90;;;;;;5072378;28;20547;-45
2022/06/09 01:07:37;;;;;;;2.13;0.77;;;14.90;99.90;;;;;;5072407;28;20451;-50
2022/06/09 01:10:05;;;;;;;1.03;0.50;;;14.90;99.90;;;;;;5072069;28;20539;-45
2022/06/09 01:12:35;;;;;;;1.00;0.50;;;14.80;99.90;;;;;;5072298;28;20670;-45
2022/06/09 01:15:05;;;;;;;0.90;0.60;;;14.80;99.90;;;;;;5071797;28;21059;-46
2022/06/09 01:17:46;;;;;;;0.90;0.50;;;14.80;99.90;;;;;;5072248;28;20444;-45
2022/06/09 01:20:26;;;;;;;1.17;0.50;;;14.80;99.90;;;;;;5072308;28;20452;-49
2022/06/09 01:23:34;;;;;;;0.90;0.47;;;14.50;99.90;;;;;;5071972;28;21058;-45
2022/06/09 01:26:49;;;;;;;1.03;0.40;;;14.30;99.90;;;;;;5071957;28;20525;-45
2022/06/09 01:29:39;;;;;;;1.10;0.57;;;14.10;99.90;;;;;;5071733;28;20476;-48
2022/06/09 01:32:14;;;;;;;1.60;0.60;;;14.20;99.90;;;;;;5072109;28;20949;-45
2022/06/09 01:34:47;;;;;;;1.10;0.60;;;14.30;99.90;;;;;;5072154;28;20472;-45
2022/06/09 01:37:16;;;;;;;1.30;0.70;;;14.40;99.90;;;;;;5071753;28;20480;-46
2022/06/09 01:39:48;;;;;;;2.90;0.53;;;14.50;99.90;;;;;;5071670;28;20446;-45
2022/06/09 01:42:37;;;;;;;1.07;0.50;;;14.60;99.90;;;;;;5071425;28;20512;-45
2022/06/09 01:45:09;;;;;;;1.67;0.60;;;14.60;99.90;;;;;;5067046;28;20927;-45
2022/06/09 01:47:43;;;;;;;2.23;0.53;;;14.60;99.90;;;;;;5071694;28;20436;-45
2022/06/09 01:50:15;;;;;;;1.03;0.53;;;14.70;99.90;;;;;;5071180;28;20435;-45
2022/06/09 01:52:44;;;;;;;1.27;0.60;;;14.80;99.90;;;;;;5071666;28;20489;-45
2022/06/09 01:55:17;;;;;;;1.30;0.53;;;14.80;99.90;;;;;;5072699;28;20519;-43
2022/06/09 01:57:44;;;;;;;1.23;0.50;;;14.70;99.90;;;;;;5071080;28;20844;-47
2022/06/09 02:00:14;;;;;;;0.90;0.50;;;14.70;99.90;;;;;;5071152;28;20962;-45
2022/06/09 02:02:47;;;;;;;1.97;0.53;;;14.70;99.90;;;;;;5071492;28;20476;-45
2022/06/09 02:05:19;;;;;;;1.53;0.70;;;14.60;99.90;;;;;;5071453;28;20521;-49
2022/06/09 02:07:47;;;;;;;3.10;0.90;;;14.40;99.90;;;;;;5071362;28;20804;-45
2022/06/09 02:10:22;;;;;;;1.60;0.50;;;14.20;99.90;;;;;;5070879;28;20463;-48
2022/06/09 02:12:50;;;;;;;2.27;0.60;;;14.30;99.90;;;;;;5071160;28;20468;-46
2022/06/09 02:15:24;;;;;;;1.10;0.60;;;14.30;99.90;;;;;;5070873;28;20510;-46
2022/06/09 02:17:52;;;;;;;1.63;0.70;;;14.40;99.90;;;;;;5071294;28;20502;-50
2022/06/09 02:20:21;;;;;;;1.07;0.60;;;14.50;99.90;;;;;;5071193;28;20447;-45
2022/06/09 02:22:49;;;;;;;1.03;0.50;;;14.50;99.90;;;;;;5071476;28;20512;-45
2022/06/09 02:25:16;;;;;;;1.50;0.73;;;14.60;99.90;;;;;;5070838;28;20463;-46
2022/06/09 02:27:43;;;;;;;1.10;0.50;;;14.60;99.90;;;;;;5071118;28;20440;-49
2022/06/09 02:30:11;;;;;;;1.40;0.40;;;14.70;99.90;;;;;;5071099;28;20537;-44
2022/06/09 02:32:38;;;;;;;0.90;0.50;;;14.70;99.90;;;;;;5070910;28;20965;-48
2022/06/09 02:35:08;;;;;;;1.67;0.53;;;14.80;99.90;;;;;;5070851;28;20503;-46
2022/06/09 02:37:35;;;;;;;2.00;0.60;;;14.80;99.90;;;;;;5071287;28;20476;-45
2022/06/09 02:40:02;;;;;;;1.23;0.70;;;14.90;99.90;;;;;;5070882;28;20816;-45
2022/06/09 02:42:29;;;;;;;2.07;0.70;;;14.90;99.90;;;;;;5070818;28;20480;-48
2022/06/09 02:44:56;;;;;;;1.10;0.60;;;14.90;99.90;;;;;;5070796;28;20531;-45
2022/06/09 02:47:23;;;;;;;1.47;0.47;;;15.00;99.90;;;;;;5070871;28;20962;-46
2022/06/09 02:49:50;;;;;;;0.93;0.60;;;15.00;99.90;;;;;;5070549;28;20936;-47
2022/06/09 02:52:18;;;;;;;1.00;0.40;;;15.00;99.90;;;;;;5070946;28;20440;-50
2022/06/09 02:54:45;;;;;;;2.93;0.50;;;15.00;99.90;;;;;;5070916;28;20486;-47
2022/06/09 02:57:12;;;;;;;1.70;0.80;;;14.90;99.90;;;;;;5070526;28;20456;-45
2022/06/09 02:59:39;;;;;;;1.00;0.50;;;14.40;99.90;;;;;;5070306;28;20467;-46
2022/06/09 03:02:06;;;;;;;1.57;0.47;;;14.40;99.90;;;;;;5070995;28;20480;-45
2022/06/09 03:04:33;;;;;;;1.07;0.67;;;14.40;99.90;;;;;;5070691;28;20480;-45
2022/06/09 03:07:01;;;;;;;3.63;0.70;;;14.40;99.90;;;;;;5070394;28;20500;-47
2022/06/09 03:09:30;;;;;;;1.10;0.53;;;14.40;99.90;;;;;;5070807;28;20436;-46
2022/06/09 03:11:56;;;;;;;1.53;0.67;;;14.50;99.90;;;;;;5074755;28;20442;-47
2022/06/09 03:14:23;;;;;;;1.27;0.70;;;14.40;99.90;;;;;;5074286;28;20525;-45
2022/06/09 03:16:51;;;;;;;1.87;0.70;;;14.40;99.90;;;;;;5074499;28;20464;-46
2022/06/09 03:19:19;;;;;;;1.17;0.60;;;14.20;99.90;;;;;;5074230;28;20452;-45
2022/06/09 03:21:46;;;;;;;1.10;0.60;;;14.00;99.90;;;;;;5074474;28;20476;-45
2022/06/09 03:24:13;;;;;;;1.13;0.60;;;14.10;99.90;;;;;;5074440;28;20558;-45
2022/06/09 03:26:42;;;;;;;1.43;0.60;;;14.30;99.90;;;;;;5073873;28;20996;-45
2022/06/09 03:29:09;;;;;;;2.10;0.60;;;14.40;99.90;;;;;;5074054;28;20440;-50
2022/06/09 03:31:36;;;;;;;1.10;0.50;;;14.40;99.90;;;;;;5074351;28;20444;-46
2022/06/09 03:34:04;;;;;;;1.23;0.50;;;14.30;99.90;;;;;;5074536;28;20724;-45
2022/06/09 03:36:31;;;;;;;4.50;1.40;;;14.20;99.90;;;;;;5074106;28;20495;-47
2022/06/09 03:38:58;;;;;;;1.50;0.60;;;14.20;99.90;;;;;;5073893;28;20498;-48
2022/06/09 03:41:25;;;;;;;1.00;0.50;;;14.10;99.90;;;;;;5073691;28;20479;-46
2022/06/09 03:43:53;;;;;;;4.60;0.60;;;14.00;99.90;;;;;;5073783;28;20512;-45
2022/06/09 03:46:20;;;;;;;1.47;0.70;;;14.10;99.90;;;;;;5074061;28;20460;-45
2022/06/09 03:48:47;;;;;;;1.47;0.60;;;14.10;99.90;;;;;;5073642;28;20509;-45
2022/06/09 03:51:14;;;;;;;2.03;0.77;;;14.10;99.90;;;;;;5073698;28;20624;-45
2022/06/09 03:53:42;;;;;;;1.07;0.50;;;14.20;99.90;;;;;;5073844;28;20432;-45
2022/06/09 03:56:13;;;;;;;1.37;0.50;;;14.40;99.90;;;;;;5073670;28;20985;-48
2022/06/09 03:58:41;;;;;;;1.37;0.40;;;14.40;99.90;;;;;;5073286;28;20468;-44
2022/06/09 04:01:13;;;;;;;1.10;0.50;;;14.40;99.90;;;;;;5073834;28;20451;-45
2022/06/09 04:03:40;;;;;;;1.10;0.70;;;14.40;99.90;;;;;;5073581;28;20512;-45
2022/06/09 04:06:07;;;;;;;1.10;0.43;;;14.40;99.90;;;;;;5073675;28;20889;-45
2022/06/09 04:08:34;;;;;;;0.90;0.43;;;14.40;99.90;;;;;;5073246;28;20440;-46
2022/06/09 04:11:01;;;;;;;5.83;0.93;;;14.30;99.90;;;;;;5073476;28;20491;-45
2022/06/09 04:13:28;;;;;;;0.90;0.50;;;14.10;99.90;;;;;;5073477;28;20844;-46
2022/06/09 04:15:55;;;;;;;1.00;0.47;;;14.20;99.90;;;;;;5073050;28;20557;-45
2022/06/09 04:18:23;;;;;;;1.47;0.87;;;14.30;99.90;;;;;;5073431;28;20842;-45
2022/06/09 04:20:50;;;;;;;3.53;0.60;;;14.40;99.90;;;;;;5073349;28;20454;-48
2022/06/09 04:23:17;;;;;;;3.13;0.60;;;14.50;99.90;;;;;;5072900;28;21079;-46
2022/06/09 04:25:44;;;;;;;0.90;0.50;;;14.50;99.90;;;;;;5073390;28;20488;-46
2022/06/09 04:28:11;;;;;;;1.10;0.70;;;14.50;99.90;;;;;;5072999;28;20522;-47
2022/06/09 04:30:38;;;;;;;0.90;0.53;;;14.50;99.90;;;;;;5072987;28;20450;-42
2022/06/09 04:33:05;;;;;;;1.37;0.57;;;14.40;99.90;;;;;;5073247;28;20440;-49
2022/06/09 04:35:33;;;;;;;0.90;0.50;;;14.30;99.90;;;;;;5072925;28;20468;-45
2022/06/09 04:38:03;;;;;;;1.13;0.77;;;14.20;99.90;;;;;;5073458;28;20546;-47
2022/06/09 04:40:33;;;;;;;1.00;0.50;;;14.30;99.90;;;;;;5072638;28;20490;-47
2022/06/09 04:43:00;;;;;;;1.00;0.53;;;14.30;99.90;;;;;;5072370;28;20952;-46
2022/06/09 04:45:28;;;;;;;1.10;0.50;;;14.40;99.90;;;;;;5073187;28;20542;-46
2022/06/09 04:47:55;;;;;;;1.10;0.57;;;14.40;99.90;;;;;;5072899;28;20476;-46
2022/06/09 04:50:22;;;;;;;0.90;0.50;;;14.50;99.90;;;;;;5072376;28;20448;-46
2022/06/09 04:52:51;;;;;;;0.90;0.50;;;14.60;99.90;;;;;;5072533;28;20453;-46
2022/06/09 04:55:18;;;;;;;0.80;0.40;;;14.60;99.90;;;;;;5072614;28;20476;-45
2022/06/09 04:57:45;;;;;;;1.07;0.60;;;14.70;99.90;;;;;;5072280;28;20468;-45
2022/06/09 05:00:14;;;;;;;2.53;0.40;;;14.80;99.90;;;;;;5071989;28;21016;-45
2022/06/09 05:02:42;;;;;;;0.90;0.50;;;14.90;99.90;;;;;;5072325;28;20445;-45
2022/06/09 05:05:17;;;;;;;1.00;0.50;;;15.00;99.90;;;;;;5072059;28;20484;-45
2022/06/09 05:07:44;;;;;;;2.60;0.60;;;15.00;99.90;;;;;;5072253;28;20444;-46
2022/06/09 05:10:12;;;;;;;1.77;1.10;;;15.00;99.90;;;;;;5072132;28;20465;-45
2022/06/09 05:12:39;;;;;;;2.67;0.90;;;15.00;99.90;;;;;;5072283;28;20441;-50
2022/06/09 05:15:07;;;;;;;2.63;0.87;;;15.00;99.90;;;;;;5071714;28;20546;-46
2022/06/09 05:17:34;;;;;;;1.37;0.90;;;15.00;99.90;;;;;;5071840;28;21012;-45
2022/06/09 05:20:01;;;;;;;1.70;0.80;;;15.00;99.90;;;;;;5071873;28;20472;-46
2022/06/09 05:22:28;;;;;;;1.33;0.60;;;15.00;99.90;;;;;;5071943;28;20535;-47
2022/06/09 05:24:58;;;;;;;1.40;0.70;;;15.00;99.90;;;;;;5071770;28;21038;-45
2022/06/09 05:27:26;;;;;;;1.40;0.80;;;15.00;99.90;;;;;;5072023;28;20448;-46
2022/06/09 05:29:53;;;;;;;0.90;0.57;;;15.00;99.90;;;;;;5071536;28;20510;-46
2022/06/09 05:32:22;;;;;;;2.47;1.10;;;15.10;99.90;;;;;;5071190;28;20464;-45
2022/06/09 05:34:48;;;;;;;1.00;0.60;;;15.10;99.90;;;;;;5071499;28;20809;-45
2022/06/09 05:37:16;;;;;;;1.53;0.97;;;15.10;99.90;;;;;;5072089;28;20435;-45
2022/06/09 05:45:13;;;;;;;1.77;0.60;;;14.80;99.90;;;;;;5071660;28;20746;-45
2022/06/09 05:47:40;;;;;;;1.40;0.80;;;14.80;99.90;;;;;;5071921;28;20505;-45
2022/06/09 05:50:09;;;;;;;1.20;0.60;;;14.80;99.90;;;;;;5071405;28;20517;-47
2022/06/09 05:52:37;;;;;;;1.53;0.97;;;14.80;99.90;;;;;;5071601;28;20468;-46
2022/06/09 05:55:05;;;;;;;1.47;0.53;;;14.90;99.90;;;;;;5071295;28;20488;-45
2022/06/09 05:57:34;;;;;;;1.93;0.80;;;14.90;99.90;;;;;;5071478;28;20866;-47
2022/06/09 06:00:03;;;;;;;1.63;0.90;;;14.90;99.90;;;;;;5071177;28;20865;-47
2022/06/09 06:02:30;;;;;;;1.10;0.70;;;15.00;99.90;;;;;;5071603;28;20970;-46
2022/06/09 06:04:57;;;;;;;1.10;0.90;;;15.10;99.90;;;;;;5071401;28;20980;-46
2022/06/09 06:07:24;;;;;;;1.00;0.90;;;15.10;99.90;;;;;;5071126;28;20437;-47
2022/06/09 06:09:51;;;;;;;1.13;0.87;;;15.10;99.90;;;;;;5071049;28;20472;-50
2022/06/09 06:12:18;;;;;;;2.00;0.70;;;15.00;99.90;;;;;;5071383;28;20480;-46
2022/06/09 06:14:46;;;;;;;1.10;0.60;;;15.10;99.90;;;;;;5070903;28;20445;-45
2022/06/09 06:17:13;;;;;;;1.20;0.70;;;15.10;99.90;;;;;;5071599;28;20480;-45
2022/06/09 06:19:40;;;;;;;1.00;0.50;;;15.10;99.90;;;;;;5071312;28;20453;-46
2022/06/09 06:22:07;;;;;;;1.50;0.87;;;15.10;99.90;;;;;;5071220;28;20476;-46
2022/06/09 06:24:34;;;;;;;2.20;2.00;;;15.10;99.90;;;;;;5071056;28;20523;-48
2022/06/09 06:27:01;;;;;;;2.50;1.20;;;15.10;99.90;;;;;;5071162;28;20862;-46
2022/06/09 06:29:28;;;;;;;1.80;1.07;;;15.10;99.90;;;;;;5070931;28;20862;-45
2022/06/09 06:31:56;;;;;;;2.63;0.80;;;15.10;99.90;;;;;;5071353;28;20472;-46
2022/06/09 06:34:23;;;;;;;2.00;1.10;;;15.10;99.90;;;;;;5071094;28;20433;-46
2022/06/09 06:36:50;;;;;;;1.80;1.07;;;15.10;99.90;;;;;;5071484;28;20478;-45
2022/06/09 06:39:17;;;;;;;2.23;0.90;;;15.10;99.90;;;;;;5070867;28;20986;-46
2022/06/09 06:41:44;;;;;;;1.00;0.80;;;15.10;99.90;;;;;;5070804;28;20494;-45
2022/06/09 06:44:11;;;;;;;1.40;0.90;;;14.90;99.90;;;;;;5071068;28;20507;-46
2022/06/09 06:46:38;;;;;;;1.73;1.13;;;14.90;99.90;;;;;;5074768;28;20547;-45
2022/06/09 06:49:08;;;;;;;3.90;1.03;;;14.90;99.90;;;;;;5074479;28;20499;-48
2022/06/09 06:51:36;;;;;;;1.00;0.73;;;14.90;99.90;;;;;;5075299;28;20456;-45
2022/06/09 06:54:05;;;;;;;1.20;0.60;;;14.90;99.90;;;;;;5074856;28;20522;-45
2022/06/09 06:56:32;;;;;;;1.00;0.70;;;14.90;99.90;;;;;;5074362;28;20472;-50
2022/06/09 06:59:01;;;;;;;1.20;0.60;;;14.90;99.90;;;;;;5074683;28;20439;-46
2022/06/09 07:01:28;;;;;;;2.03;1.00;;;15.00;99.90;;;;;;5074915;28;20531;-50
2022/06/09 07:03:56;;;;;;;1.40;1.10;;;15.00;99.90;;;;;;5074530;28;20533;-45
2022/06/09 07:06:25;;;;;;;1.87;0.60;;;15.10;99.90;;;;;;5074690;28;20470;-47
2022/06/09 07:08:52;;;;;;;1.63;1.10;;;15.10;99.90;;;;;;5074507;28;20443;-46
2022/06/09 07:11:19;;;;;;;1.40;1.10;;;15.10;99.90;;;;;;5074334;28;20445;-47
2022/06/09 07:13:46;;;;;;;2.20;1.50;;;15.20;99.90;;;;;;5074613;28;20442;-45
2022/06/09 07:16:13;;;;;;;2.53;2.33;;;15.20;99.90;;;;;;5074001;28;20500;-47
2022/06/09 07:18:40;;;;;;;21.67;14.87;;;15.30;99.90;;;;;;5074488;28;20444;-43
2022/06/09 07:21:08;;;;;;;3.20;2.27;;;15.40;99.90;;;;;;5074528;28;20494;-51
2022/06/09 07:23:37;;;;;;;1.33;0.73;;;15.50;99.90;;;;;;5074507;28;20440;-45
2022/06/09 07:26:05;;;;;;;2.17;1.23;;;15.50;99.90;;;;;;5074122;28;20460;-45
2022/06/09 07:28:33;;;;;;;1.50;1.20;;;15.60;99.90;;;;;;5073860;28;20444;-46
2022/06/09 07:31:01;;;;;;;1.00;0.60;;;15.60;99.90;;;;;;5073826;28;20489;-51
2022/06/09 07:33:31;;;;;;;1.23;0.87;;;15.50;99.90;;;;;;5073927;28;20811;-45
2022/06/09 07:35:59;;;;;;;2.73;1.10;;;15.50;99.90;;;;;;5074110;28;20882;-45
2022/06/09 07:38:27;;;;;;;1.50;0.90;;;15.50;99.90;;;;;;5074092;28;20432;-47
2022/06/09 07:40:56;;;;;;;1.90;0.70;;;15.60;99.90;;;;;;5073639;28;20497;-49
2022/06/09 07:43:23;;;;;;;2.33;2.13;;;15.60;99.90;;;;;;5074115;28;20464;-47
2022/06/09 07:45:50;;;;;;;1.53;1.23;;;15.70;99.90;;;;;;5073954;28;20543;-45
2022/06/09 07:48:20;;;;;;;1.30;0.90;;;15.70;99.90;;;;;;5073833;28;20822;-47
2022/06/09 07:50:49;;;;;;;1.10;0.90;;;15.70;99.90;;;;;;5074069;28;20448;-47
2022/06/09 07:53:16;;;;;;;1.10;0.80;;;15.80;99.90;;;;;;5073806;28;20451;-46
2022/06/09 07:55:43;;;;;;;1.10;0.67;;;15.70;99.90;;;;;;5074194;28;20514;-47
2022/06/09 07:58:12;;;;;;;2.57;0.77;;;15.80;99.90;;;;;;5073698;28;20444;-45
2022/06/09 08:00:40;;;;;;;1.33;0.90;;;15.90;99.90;;;;;;5073400;28;20440;-45
2022/06/09 08:03:08;;;;;;;2.07;0.60;;;15.90;99.90;;;;;;5073897;28;20444;-45
2022/06/09 08:05:35;;;;;;;2.07;1.00;;;15.90;99.90;;;;;;5073618;28;20576;-45
2022/06/09 08:08:02;;;;;;;1.10;0.63;;;15.80;99.90;;;;;;5073586;28;20450;-48
2022/06/09 08:10:30;;;;;;;2.10;1.10;;;15.80;99.90;;;;;;5073562;28;20539;-47
2022/06/09 08:13:00;;;;;;;1.63;0.90;;;15.70;99.90;;;;;;5073436;28;20468;-48
2022/06/09 08:15:30;;;;;;;0.93;0.50;;;15.70;99.90;;;;;;5072700;28;20506;-46
2022/06/09 08:17:59;;;;;;;1.00;0.53;;;15.60;99.90;;;;;;5073423;28;20444;-49
2022/06/09 08:20:27;;;;;;;2.50;0.70;;;15.70;99.90;;;;;;5072888;28;20511;-48
2022/06/09 08:23:00;;;;;;;1.40;0.80;;;15.70;99.90;;;;;;5073571;28;20480;-45
2022/06/09 08:25:28;;;;;;;1.80;0.90;;;15.70;99.90;;;;;;5073286;28;20563;-47
2022/06/09 08:27:54;;;;;;;1.30;0.73;;;15.80;99.90;;;;;;5073374;28;20450;-45
2022/06/09 08:30:22;;;;;;;1.40;0.60;;;15.80;99.90;;;;;;5072913;28;20498;-48
2022/06/09 08:32:51;;;;;;;1.00;0.60;;;15.80;99.90;;;;;;5073105;28;20535;-45
2022/06/09 08:35:19;;;;;;;1.00;0.70;;;15.70;99.90;;;;;;5073007;28;20465;-45
2022/06/09 08:37:48;;;;;;;1.00;0.70;;;15.70;99.90;;;;;;5073043;28;20855;-45
2022/06/09 08:40:22;;;;;;;1.20;0.70;;;15.60;99.90;;;;;;5072669;28;20453;-45
2022/06/09 08:43:19;;;;;;;1.30;0.60;;;15.60;99.90;;;;;;5072869;28;20445;-46
2022/06/09 08:45:47;;;;;;;1.30;0.97;;;15.20;99.90;;;;;;5072949;28;20905;-46
2022/06/09 08:48:21;;;;;;;1.70;1.13;;;15.00;99.90;;;;;;5072737;28;20511;-46
2022/06/09 08:50:57;;;;;;;1.20;0.80;;;15.10;99.90;;;;;;5072555;28;20936;-46
2022/06/09 08:53:29;;;;;;;2.20;1.20;;;14.70;99.90;;;;;;5072773;28;20451;-45
2022/06/09 08:55:59;;;;;;;2.20;1.30;;;14.70;99.90;;;;;;5072626;28;20468;-45
2022/06/09 08:58:30;;;;;;;6.33;4.33;;;14.70;99.90;;;;;;5072970;28;20866;-46
2022/06/09 09:01:04;;;;;;;4.20;2.60;;;14.90;99.90;;;;;;5072170;28;20476;-45
2022/06/09 09:03:35;;;;;;;2.37;2.00;;;15.10;99.90;;;;;;5072524;28;20440;-45
2022/06/09 09:06:08;;;;;;;2.30;2.10;;;15.20;99.90;;;;;;5072331;28;20495;-45
2022/06/09 09:08:36;;;;;;;3.27;1.37;;;15.30;99.90;;;;;;5071651;28;20449;-45
2022/06/09 09:11:18;;;;;;;2.23;1.20;;;15.40;99.90;;;;;;5072713;28;20444;-48
2022/06/09 09:13:50;;;;;;;2.53;1.10;;;15.50;99.90;;;;;;5072524;28;20502;-47
2022/06/09 09:16:22;;;;;;;1.30;1.00;;;15.70;99.90;;;;;;5071863;28;20467;-46
2022/06/09 09:18:54;;;;;;;2.50;1.33;;;15.70;99.90;;;;;;5071990;28;20444;-46
2022/06/09 09:21:44;;;;;;;1.67;1.13;;;15.60;99.90;;;;;;5072061;28;20441;-47
2022/06/09 09:24:29;;;;;;;1.30;1.00;;;15.60;99.90;;;;;;5071963;28;20538;-48
2022/06/09 09:27:04;;;;;;;1.27;0.70;;;15.70;99.90;;;;;;5071907;28;20535;-45
2022/06/09 09:29:36;;;;;;;2.40;0.77;;;15.70;99.90;;;;;;5072008;28;20523;-45
2022/06/09 09:32:06;;;;;;;1.57;0.87;;;15.70;99.90;;;;;;5071985;28;20444;-45
2022/06/09 09:34:37;;;;;;;1.70;1.00;;;15.60;99.90;;;;;;5071892;28;20521;-45
2022/06/09 09:37:21;;;;;;;1.93;1.07;;;15.30;99.90;;;;;;5071788;28;21030;-45
2022/06/09 09:39:53;;;;;;;1.40;1.00;;;15.20;99.90;;;;;;5071811;28;20880;-48
2022/06/09 09:42:22;;;;;;;1.50;0.97;;;15.00;99.90;;;;;;5071545;28;20953;-45
2022/06/09 09:45:07;;;;;;;1.53;0.80;;;15.10;99.90;;;;;;5071335;28;20985;-46
2022/06/09 09:47:44;;;;;;;3.57;1.13;;;15.20;99.90;;;;;;5071838;28;20448;-45
2022/06/09 09:50:25;;;;;;;1.23;0.90;;;15.30;99.90;;;;;;5071425;28;20448;-46
2022/06/09 09:53:04;;;;;;;1.60;0.63;;;15.20;99.90;;;;;;5071778;28;20475;-46
2022/06/09 09:55:35;;;;;;;1.30;0.90;;;15.10;99.90;;;;;;5071340;28;21003;-46
2022/06/09 09:58:28;;;;;;;3.33;1.13;;;15.20;99.90;;;;;;5071338;28;20467;-45
2022/06/09 10:00:58;;;;;;;1.83;0.60;;;15.10;99.90;;;;;;5068313;28;20452;-49
2022/06/09 10:09:18;;;;;;;1.50;1.00;;;15.10;99.90;;;;;;5071083;28;20517;-45
2022/06/09 10:11:59;;;;;;;1.43;0.97;;;15.10;99.90;;;;;;5071554;28;20525;-45
2022/06/09 10:14:40;;;;;;;1.80;1.20;;;15.10;99.90;;;;;;5070749;28;20452;-47
2022/06/09 10:17:21;;;;;;;5.67;5.07;;;15.20;99.90;;;;;;5071237;28;20440;-46
2022/06/09 10:19:51;;;;;;;1.77;1.50;;;15.30;99.90;;;;;;5070837;28;20479;-45
2022/06/09 10:22:22;;;;;;;3.07;2.30;;;15.40;99.90;;;;;;5071553;28;20483;-45
2022/06/09 10:24:55;;;;;;;2.37;1.43;;;15.40;99.90;;;;;;5070771;28;20455;-45
2022/06/09 10:27:27;;;;;;;1.80;1.10;;;15.50;99.90;;;;;;5071560;28;20502;-45
2022/06/09 10:30:02;;;;;;;4.53;0.80;;;15.60;99.90;;;;;;5071165;28;20440;-45
2022/06/09 10:32:37;;;;;;;1.80;1.60;;;15.70;99.90;;;;;;5071153;28;20979;-48
2022/06/09 10:35:10;;;;;;;1.10;0.87;;;15.70;99.90;;;;;;5070975;28;21044;-48
2022/06/09 10:37:46;;;;;;;1.10;0.70;;;15.80;99.90;;;;;;5071208;28;20440;-45
2022/06/09 10:40:18;;;;;;;1.20;0.70;;;15.90;99.90;;;;;;5070982;28;20497;-45
2022/06/09 10:42:53;;;;;;;1.50;1.20;;;15.90;99.90;;;;;;5070885;28;20448;-46
2022/06/09 10:45:26;;;;;;;1.47;0.90;;;15.90;99.90;;;;;;5070774;28;20490;-46
2022/06/09 10:56:39;;;;;;;1.40;1.00;;;15.90;99.90;;;;;;5070543;28;20546;-47
2022/06/09 10:59:13;;;;;;;1.30;1.00;;;15.90;99.90;;;;;;5070585;28;20480;-46
2022/06/09 11:01:40;;;;;;;1.80;1.00;;;15.90;99.90;;;;;;5070913;28;20436;-45
2022/06/09 11:04:15;;;;;;;1.67;1.03;;;15.90;99.90;;;;;;5070801;28;20440;-48
2022/06/09 11:07:01;;;;;;;1.67;1.20;;;16.00;99.90;;;;;;5070671;28;20479;-46
2022/06/09 11:09:39;;;;;;;1.50;1.10;;;16.00;99.90;;;;;;5070851;28;20517;-45
2022/06/09 11:12:17;;;;;;;1.20;0.80;;;16.00;99.90;;;;;;5070850;28;20476;-45
2022/06/09 11:14:59;;;;;;;1.40;0.87;;;16.00;99.90;;;;;;5069977;28;20440;-46
2022/06/09 11:17:43;;;;;;;1.33;0.90;;;16.10;99.90;;;;;;5070872;28;20472;-45
2022/06/09 11:20:24;;;;;;;1.20;0.90;;;16.00;99.90;;;;;;5070619;28;20440;-45
2022/06/09 11:23:01;;;;;;;1.97;0.90;;;16.00;99.90;;;;;;5070630;28;20491;-45
2022/06/09 11:25:40;;;;;;;1.30;0.90;;;16.10;99.90;;;;;;5070519;28;20575;-48
2022/06/09 11:28:19;;;;;;;1.50;0.90;;;16.10;99.90;;;;;;5070674;28;20472;-45
2022/06/09 11:31:09;;;;;;;1.93;0.80;;;16.10;99.90;;;;;;5071037;28;20493;-45
2022/06/09 11:33:52;;;;;;;1.67;0.87;;;16.00;99.90;;;;;;5074155;28;20474;-45
2022/06/09 11:36:24;;;;;;;1.50;1.00;;;16.10;99.90;;;;;;5073892;28;20893;-47
2022/06/09 11:39:00;;;;;;;1.23;0.67;;;16.10;99.90;;;;;;5073985;28;20443;-49
2022/06/09 11:41:36;;;;;;;1.63;1.10;;;16.10;99.90;;;;;;5074135;28;20435;-47
2022/06/09 11:44:14;;;;;;;1.40;0.87;;;16.20;99.90;;;;;;5073915;28;20948;-45
2022/06/09 11:46:43;;;;;;;1.23;0.93;;;16.20;99.90;;;;;;5073888;28;20960;-46
2022/06/09 11:49:17;;;;;;;1.00;0.60;;;16.10;99.90;;;;;;5073797;28;20642;-47
2022/06/09 11:51:44;;;;;;;1.10;0.60;;;16.00;99.90;;;;;;5074025;28;20519;-45
2022/06/09 11:54:57;;;;;;;0.93;0.60;;;16.10;99.90;;;;;;5073866;28;20535;-45
2022/06/09 11:57:42;;;;;;;1.10;0.80;;;16.10;99.90;;;;;;5073389;28;20444;-46
2022/06/09 12:00:35;;;;;;;1.00;0.70;;;16.10;99.90;;;;;;5073731;28;20474;-45
2022/06/09 12:03:31;;;;;;;1.10;0.67;;;16.10;99.90;;;;;;5073590;28;20472;-46
2022/06/09 12:06:02;;;;;;;1.07;0.70;;;15.90;99.90;;;;;;5073716;28;20559;-45
2022/06/09 12:08:40;;;;;;;1.50;0.80;;;15.70;99.90;;;;;;5073395;28;20531;-45
2022/06/09 12:11:14;;;;;;;1.67;0.80;;;15.60;99.90;;;;;;5073348;28;20983;-49
2022/06/09 12:14:17;;;;;;;0.90;0.60;;;15.60;99.90;;;;;;5073348;28;20448;-45
2022/06/09 12:16:59;;;;;;;1.77;0.70;;;15.50;99.90;;;;;;5062725;28;20499;-47
2022/06/09 12:19:29;;;;;;;1.40;0.83;;;15.20;99.90;;;;;;5073114;28;21012;-46
2022/06/09 12:21:59;;;;;;;1.50;0.80;;;15.30;99.90;;;;;;5073324;28;20872;-48
2022/06/09 12:24:37;;;;;;;1.70;0.90;;;15.30;99.90;;;;;;5073132;28;20436;-46
2022/06/09 12:27:37;;;;;;;1.40;0.80;;;15.30;99.90;;;;;;5073328;28;20922;-49
2022/06/09 12:30:39;;;;;;;1.30;0.70;;;15.30;99.90;;;;;;5072734;28;20441;-49
2022/06/09 12:33:27;;;;;;;1.33;0.80;;;15.40;99.90;;;;;;5073200;28;20886;-45
2022/06/09 12:35:56;;;;;;;1.00;0.70;;;15.40;99.90;;;;;;5072971;28;20457;-45
2022/06/09 12:38:28;;;;;;;2.50;0.80;;;15.00;99.90;;;;;;5073094;28;20535;-45
2022/06/09 12:40:58;;;;;;;1.67;0.53;;;14.60;99.90;;;;;;5072404;28;20440;-48
2022/06/09 12:43:33;;;;;;;1.50;0.70;;;14.30;99.90;;;;;;5072705;28;20478;-49
2022/06/09 12:46:18;;;;;;;1.00;0.70;;;14.20;99.90;;;;;;5072771;28;20912;-45
2022/06/09 12:48:46;;;;;;;1.07;0.70;;;14.10;99.90;;;;;;5072600;28;20445;-51
2022/06/09 12:51:19;;;;;;;1.00;0.70;;;14.10;99.90;;;;;;5072526;28;20899;-45
2022/06/09 12:53:57;;;;;;;2.93;1.13;;;14.10;99.90;;;;;;5073092;28;20472;-45
2022/06/09 12:56:28;;;;;;;1.00;0.50;;;14.20;99.90;;;;;;5072493;28;20968;-44
2022/06/09 12:58:57;;;;;;;0.90;0.60;;;14.10;99.90;;;;;;5072183;28;20444;-46
2022/06/09 13:01:28;;;;;;;1.10;0.80;;;14.10;99.90;;;;;;5072545;28;20862;-45
2022/06/09 13:03:59;;;;;;;1.40;0.80;;;14.20;99.90;;;;;;5072572;28;20445;-45
2022/06/09 13:06:30;;;;;;;1.10;0.70;;;14.20;99.90;;;;;;5072298;28;20486;-48
2022/06/09 13:08:59;;;;;;;0.97;0.60;;;14.10;99.90;;;;;;5072064;28;20444;-46
2022/06/09 13:14:20;;;;;;;1.00;0.77;;;14.00;99.90;;;;;;5072056;28;20731;-45
2022/06/09 13:16:51;;;;;;;1.10;0.70;;;14.00;99.90;;;;;;5072413;28;20461;-45
2022/06/09 13:19:21;;;;;;;0.83;0.50;;;14.00;99.90;;;;;;5071917;28;20482;-45
2022/06/09 13:21:49;;;;;;;1.40;0.90;;;14.10;99.90;;;;;;5071974;28;20479;-45
2022/06/09 13:24:24;;;;;;;1.00;0.67;;;14.10;99.90;;;;;;5072021;28;20835;-45
2022/06/09 13:26:51;;;;;;;1.80;1.27;;;14.20;99.90;;;;;;5071964;28;20886;-45
2022/06/09 13:29:22;;;;;;;1.30;0.70;;;14.20;99.90;;;;;;5069383;28;20472;-45
2022/06/09 13:31:53;;;;;;;1.00;0.60;;;14.20;99.90;;;;;;5070634;28;20448;-45